sensor_id;sensor_type;location;lat;lon;timestamp;P1;durP1;ratioP1;P2;durP2;ratioP2
54835;SDS011;43486;43.574;1.476;2023-06-22T00:01:46;7.07;;;5.10;;
54835;SDS011;43486;43.574;1.476;2023-06-22T00:04:12;6.80;;;4.38;;
54835;SDS011;43486;43.574;1.476;2023-06-22T00:06:37;7.63;;;3.75;;
54835;SDS011;43486;43.574;1.476;2023-06-22T00:09:02;11.50;;;5.00;;
54835;SDS011;43486;43.574;1.476;2023-06-22T00:11:28;8.45;;;4.15;;
54835;SDS011;43486;43.574;1.476;2023-06-22T00:13:54;9.52;;;5.05;;
54835;SDS011;43486;43.574;1.476;2023-06-22T00:16:19;9.35;;;4.13;;
54835;SDS011;43486;43.574;1.476;2023-06-22T00:18:44;6.38;;;3.55;;
54835;SDS011;43486;43.574;1.476;2023-06-22T00:21:12;12.02;;;4.72;;
54835;SDS011;43486;43.574;1.476;2023-06-22T00:23:38;8.27;;;4.53;;
54835;SDS011;43486;43.574;1.476;2023-06-22T00:26:03;10.90;;;4.47;;
54835;SDS011;43486;43.574;1.476;2023-06-22T00:28:29;9.63;;;4.28;;
54835;SDS011;43486;43.574;1.476;2023-06-22T00:30:54;7.85;;;4.85;;
54835;SDS011;43486;43.574;1.476;2023-06-22T00:33:20;6.18;;;3.55;;
54835;SDS011;43486;43.574;1.476;2023-06-22T00:35:45;7.93;;;4.35;;
54835;SDS011;43486;43.574;1.476;2023-06-22T00:38:10;7.38;;;3.38;;
54835;SDS011;43486;43.574;1.476;2023-06-22T00:40:36;9.48;;;4.05;;
54835;SDS011;43486;43.574;1.476;2023-06-22T00:43:02;8.52;;;4.47;;
54835;SDS011;43486;43.574;1.476;2023-06-22T00:45:27;7.70;;;3.90;;
54835;SDS011;43486;43.574;1.476;2023-06-22T00:47:53;8.35;;;4.25;;
54835;SDS011;43486;43.574;1.476;2023-06-22T00:50:21;6.32;;;3.08;;
54835;SDS011;43486;43.574;1.476;2023-06-22T00:52:56;8.65;;;3.55;;
54835;SDS011;43486;43.574;1.476;2023-06-22T00:55:23;7.50;;;3.47;;
54835;SDS011;43486;43.574;1.476;2023-06-22T00:57:50;6.65;;;4.43;;
54835;SDS011;43486;43.574;1.476;2023-06-22T01:00:20;11.07;;;3.40;;
54835;SDS011;43486;43.574;1.476;2023-06-22T01:02:49;6.43;;;3.50;;
54835;SDS011;43486;43.574;1.476;2023-06-22T01:05:17;5.60;;;2.85;;
54835;SDS011;43486;43.574;1.476;2023-06-22T01:10:23;5.95;;;3.25;;
54835;SDS011;43486;43.574;1.476;2023-06-22T01:12:53;6.03;;;3.35;;
54835;SDS011;43486;43.574;1.476;2023-06-22T01:15:23;4.85;;;3.22;;
54835;SDS011;43486;43.574;1.476;2023-06-22T01:17:54;8.43;;;4.60;;
54835;SDS011;43486;43.574;1.476;2023-06-22T01:20:22;5.35;;;3.28;;
54835;SDS011;43486;43.574;1.476;2023-06-22T01:23:09;5.65;;;3.22;;
54835;SDS011;43486;43.574;1.476;2023-06-22T01:26:05;7.85;;;4.20;;
54835;SDS011;43486;43.574;1.476;2023-06-22T01:28:48;5.18;;;3.10;;
54835;SDS011;43486;43.574;1.476;2023-06-22T01:31:18;5.97;;;3.63;;
54835;SDS011;43486;43.574;1.476;2023-06-22T01:33:47;7.72;;;2.78;;
54835;SDS011;43486;43.574;1.476;2023-06-22T01:36:14;7.28;;;4.05;;
54835;SDS011;43486;43.574;1.476;2023-06-22T01:38:41;8.15;;;3.40;;
54835;SDS011;43486;43.574;1.476;2023-06-22T01:41:07;7.05;;;3.78;;
54835;SDS011;43486;43.574;1.476;2023-06-22T01:43:33;6.43;;;3.42;;
54835;SDS011;43486;43.574;1.476;2023-06-22T01:46:00;4.70;;;2.78;;
54835;SDS011;43486;43.574;1.476;2023-06-22T01:48:26;13.35;;;3.75;;
54835;SDS011;43486;43.574;1.476;2023-06-22T01:50:52;4.40;;;2.63;;
54835;SDS011;43486;43.574;1.476;2023-06-22T01:53:20;5.50;;;3.08;;
54835;SDS011;43486;43.574;1.476;2023-06-22T01:55:48;6.20;;;3.22;;
54835;SDS011;43486;43.574;1.476;2023-06-22T01:58:14;5.88;;;3.47;;
54835;SDS011;43486;43.574;1.476;2023-06-22T02:00:40;5.13;;;2.90;;
54835;SDS011;43486;43.574;1.476;2023-06-22T02:03:11;7.72;;;2.97;;
54835;SDS011;43486;43.574;1.476;2023-06-22T02:05:46;6.40;;;2.70;;
54835;SDS011;43486;43.574;1.476;2023-06-22T02:08:19;8.27;;;3.10;;
54835;SDS011;43486;43.574;1.476;2023-06-22T02:10:46;8.23;;;3.30;;
54835;SDS011;43486;43.574;1.476;2023-06-22T02:13:12;8.02;;;3.25;;
54835;SDS011;43486;43.574;1.476;2023-06-22T02:15:38;6.25;;;3.03;;
54835;SDS011;43486;43.574;1.476;2023-06-22T02:18:03;6.72;;;2.72;;
54835;SDS011;43486;43.574;1.476;2023-06-22T02:20:30;8.43;;;3.00;;
54835;SDS011;43486;43.574;1.476;2023-06-22T02:22:55;5.57;;;2.88;;
54835;SDS011;43486;43.574;1.476;2023-06-22T02:25:21;5.97;;;2.63;;
54835;SDS011;43486;43.574;1.476;2023-06-22T02:27:46;5.25;;;3.20;;
54835;SDS011;43486;43.574;1.476;2023-06-22T02:30:12;6.80;;;2.83;;
54835;SDS011;43486;43.574;1.476;2023-06-22T02:32:39;5.07;;;2.47;;
54835;SDS011;43486;43.574;1.476;2023-06-22T02:35:08;5.15;;;2.85;;
54835;SDS011;43486;43.574;1.476;2023-06-22T02:37:37;4.78;;;2.10;;
54835;SDS011;43486;43.574;1.476;2023-06-22T02:40:06;5.40;;;3.83;;
54835;SDS011;43486;43.574;1.476;2023-06-22T02:42:34;5.88;;;3.25;;
54835;SDS011;43486;43.574;1.476;2023-06-22T02:44:59;5.32;;;2.40;;
54835;SDS011;43486;43.574;1.476;2023-06-22T02:47:25;4.32;;;2.45;;
54835;SDS011;43486;43.574;1.476;2023-06-22T02:49:51;3.90;;;2.25;;
54835;SDS011;43486;43.574;1.476;2023-06-22T02:52:16;6.72;;;2.92;;
54835;SDS011;43486;43.574;1.476;2023-06-22T02:54:41;4.63;;;2.28;;
54835;SDS011;43486;43.574;1.476;2023-06-22T02:57:07;6.47;;;2.97;;
54835;SDS011;43486;43.574;1.476;2023-06-22T02:59:41;4.65;;;2.38;;
54835;SDS011;43486;43.574;1.476;2023-06-22T03:02:07;5.65;;;3.35;;
54835;SDS011;43486;43.574;1.476;2023-06-22T03:04:34;5.53;;;2.13;;
54835;SDS011;43486;43.574;1.476;2023-06-22T03:07:00;4.90;;;2.67;;
54835;SDS011;43486;43.574;1.476;2023-06-22T03:09:26;5.63;;;2.80;;
54835;SDS011;43486;43.574;1.476;2023-06-22T03:11:53;5.55;;;2.35;;
54835;SDS011;43486;43.574;1.476;2023-06-22T03:14:21;5.28;;;2.75;;
54835;SDS011;43486;43.574;1.476;2023-06-22T03:16:47;4.47;;;2.35;;
54835;SDS011;43486;43.574;1.476;2023-06-22T03:19:12;4.80;;;2.42;;
54835;SDS011;43486;43.574;1.476;2023-06-22T03:21:38;4.47;;;2.35;;
54835;SDS011;43486;43.574;1.476;2023-06-22T03:24:04;4.60;;;2.15;;
54835;SDS011;43486;43.574;1.476;2023-06-22T03:26:30;3.38;;;2.00;;
54835;SDS011;43486;43.574;1.476;2023-06-22T03:28:56;4.43;;;2.42;;
54835;SDS011;43486;43.574;1.476;2023-06-22T03:31:21;4.65;;;2.30;;
54835;SDS011;43486;43.574;1.476;2023-06-22T03:33:48;3.88;;;2.67;;
54835;SDS011;43486;43.574;1.476;2023-06-22T03:36:17;3.78;;;2.13;;
54835;SDS011;43486;43.574;1.476;2023-06-22T03:38:46;4.43;;;2.33;;
54835;SDS011;43486;43.574;1.476;2023-06-22T03:41:12;3.30;;;1.95;;
54835;SDS011;43486;43.574;1.476;2023-06-22T03:43:37;4.72;;;2.10;;
54835;SDS011;43486;43.574;1.476;2023-06-22T03:46:03;4.35;;;2.33;;
54835;SDS011;43486;43.574;1.476;2023-06-22T03:48:28;5.25;;;2.78;;
54835;SDS011;43486;43.574;1.476;2023-06-22T03:50:53;6.78;;;2.75;;
54835;SDS011;43486;43.574;1.476;2023-06-22T03:53:19;6.47;;;2.53;;
54835;SDS011;43486;43.574;1.476;2023-06-22T03:55:48;5.32;;;2.58;;
54835;SDS011;43486;43.574;1.476;2023-06-22T03:58:15;7.88;;;1.88;;
54835;SDS011;43486;43.574;1.476;2023-06-22T04:00:41;4.65;;;2.00;;
54835;SDS011;43486;43.574;1.476;2023-06-22T04:03:06;6.05;;;2.55;;
54835;SDS011;43486;43.574;1.476;2023-06-22T04:05:32;4.03;;;1.73;;
54835;SDS011;43486;43.574;1.476;2023-06-22T04:07:58;5.15;;;2.45;;
54835;SDS011;43486;43.574;1.476;2023-06-22T04:10:23;3.38;;;2.20;;
54835;SDS011;43486;43.574;1.476;2023-06-22T04:12:48;5.10;;;2.60;;
54835;SDS011;43486;43.574;1.476;2023-06-22T04:15:14;5.03;;;2.63;;
54835;SDS011;43486;43.574;1.476;2023-06-22T04:17:39;3.40;;;1.75;;
54835;SDS011;43486;43.574;1.476;2023-06-22T04:20:05;4.80;;;2.55;;
54835;SDS011;43486;43.574;1.476;2023-06-22T04:22:31;5.43;;;2.83;;
54835;SDS011;43486;43.574;1.476;2023-06-22T04:24:56;4.95;;;2.28;;
54835;SDS011;43486;43.574;1.476;2023-06-22T04:27:22;4.85;;;2.53;;
54835;SDS011;43486;43.574;1.476;2023-06-22T04:29:48;6.15;;;2.42;;
54835;SDS011;43486;43.574;1.476;2023-06-22T04:32:14;4.55;;;2.42;;
54835;SDS011;43486;43.574;1.476;2023-06-22T04:34:40;4.03;;;2.45;;
54835;SDS011;43486;43.574;1.476;2023-06-22T04:37:05;13.77;;;3.08;;
54835;SDS011;43486;43.574;1.476;2023-06-22T04:39:31;8.93;;;2.58;;
54835;SDS011;43486;43.574;1.476;2023-06-22T04:41:56;3.17;;;1.98;;
54835;SDS011;43486;43.574;1.476;2023-06-22T04:44:25;5.82;;;2.20;;
54835;SDS011;43486;43.574;1.476;2023-06-22T04:46:56;6.32;;;2.60;;
54835;SDS011;43486;43.574;1.476;2023-06-22T04:49:27;5.78;;;2.30;;
54835;SDS011;43486;43.574;1.476;2023-06-22T04:52:00;7.37;;;2.87;;
54835;SDS011;43486;43.574;1.476;2023-06-22T04:54:26;5.07;;;1.92;;
54835;SDS011;43486;43.574;1.476;2023-06-22T04:56:52;2.72;;;1.75;;
54835;SDS011;43486;43.574;1.476;2023-06-22T04:59:24;4.18;;;2.20;;
54835;SDS011;43486;43.574;1.476;2023-06-22T05:01:55;5.85;;;3.00;;
54835;SDS011;43486;43.574;1.476;2023-06-22T05:04:21;4.95;;;2.58;;
54835;SDS011;43486;43.574;1.476;2023-06-22T05:06:48;3.42;;;1.98;;
54835;SDS011;43486;43.574;1.476;2023-06-22T05:09:13;5.13;;;2.13;;
54835;SDS011;43486;43.574;1.476;2023-06-22T05:11:39;4.20;;;2.15;;
54835;SDS011;43486;43.574;1.476;2023-06-22T05:14:04;5.10;;;3.33;;
54835;SDS011;43486;43.574;1.476;2023-06-22T05:16:30;5.68;;;2.42;;
54835;SDS011;43486;43.574;1.476;2023-06-22T05:18:55;3.83;;;1.80;;
54835;SDS011;43486;43.574;1.476;2023-06-22T05:21:24;5.78;;;2.67;;
54835;SDS011;43486;43.574;1.476;2023-06-22T05:23:51;4.93;;;2.53;;
54835;SDS011;43486;43.574;1.476;2023-06-22T05:26:17;3.72;;;2.08;;
54835;SDS011;43486;43.574;1.476;2023-06-22T05:28:43;4.45;;;2.45;;
54835;SDS011;43486;43.574;1.476;2023-06-22T05:31:16;5.40;;;2.55;;
54835;SDS011;43486;43.574;1.476;2023-06-22T05:33:42;8.27;;;2.58;;
54835;SDS011;43486;43.574;1.476;2023-06-22T05:36:08;8.30;;;2.78;;
54835;SDS011;43486;43.574;1.476;2023-06-22T05:38:34;3.63;;;1.90;;
54835;SDS011;43486;43.574;1.476;2023-06-22T05:40:59;5.78;;;2.58;;
54835;SDS011;43486;43.574;1.476;2023-06-22T05:43:25;4.68;;;2.10;;
54835;SDS011;43486;43.574;1.476;2023-06-22T05:45:50;8.52;;;2.10;;
54835;SDS011;43486;43.574;1.476;2023-06-22T05:48:16;5.68;;;2.60;;
54835;SDS011;43486;43.574;1.476;2023-06-22T05:50:41;4.40;;;2.38;;
54835;SDS011;43486;43.574;1.476;2023-06-22T05:53:07;4.85;;;2.35;;
54835;SDS011;43486;43.574;1.476;2023-06-22T05:55:32;3.90;;;2.42;;
54835;SDS011;43486;43.574;1.476;2023-06-22T05:57:58;5.57;;;3.05;;
54835;SDS011;43486;43.574;1.476;2023-06-22T06:00:23;4.10;;;2.22;;
54835;SDS011;43486;43.574;1.476;2023-06-22T06:02:49;5.82;;;2.70;;
54835;SDS011;43486;43.574;1.476;2023-06-22T06:05:15;4.57;;;2.88;;
54835;SDS011;43486;43.574;1.476;2023-06-22T06:07:41;4.20;;;2.63;;
54835;SDS011;43486;43.574;1.476;2023-06-22T06:10:07;7.13;;;3.28;;
54835;SDS011;43486;43.574;1.476;2023-06-22T06:12:33;6.07;;;3.13;;
54835;SDS011;43486;43.574;1.476;2023-06-22T06:14:58;6.93;;;2.33;;
54835;SDS011;43486;43.574;1.476;2023-06-22T06:17:24;4.95;;;2.72;;
54835;SDS011;43486;43.574;1.476;2023-06-22T06:19:49;5.68;;;2.80;;
54835;SDS011;43486;43.574;1.476;2023-06-22T06:22:14;9.30;;;3.33;;
54835;SDS011;43486;43.574;1.476;2023-06-22T06:24:40;5.13;;;2.78;;
54835;SDS011;43486;43.574;1.476;2023-06-22T06:27:05;6.93;;;3.15;;
54835;SDS011;43486;43.574;1.476;2023-06-22T06:29:34;6.00;;;2.95;;
54835;SDS011;43486;43.574;1.476;2023-06-22T06:31:59;5.90;;;2.67;;
54835;SDS011;43486;43.574;1.476;2023-06-22T06:34:24;7.47;;;3.58;;
54835;SDS011;43486;43.574;1.476;2023-06-22T06:36:50;6.25;;;3.30;;
54835;SDS011;43486;43.574;1.476;2023-06-22T06:39:15;11.93;;;3.88;;
54835;SDS011;43486;43.574;1.476;2023-06-22T06:41:41;9.75;;;3.97;;
54835;SDS011;43486;43.574;1.476;2023-06-22T06:44:06;12.15;;;5.60;;
54835;SDS011;43486;43.574;1.476;2023-06-22T06:46:32;10.73;;;5.13;;
54835;SDS011;43486;43.574;1.476;2023-06-22T06:48:57;13.95;;;6.55;;
54835;SDS011;43486;43.574;1.476;2023-06-22T06:51:23;14.95;;;6.47;;
54835;SDS011;43486;43.574;1.476;2023-06-22T06:53:49;9.77;;;5.78;;
54835;SDS011;43486;43.574;1.476;2023-06-22T06:56:14;11.77;;;6.57;;
54835;SDS011;43486;43.574;1.476;2023-06-22T06:58:43;11.85;;;5.82;;
54835;SDS011;43486;43.574;1.476;2023-06-22T07:01:10;11.65;;;5.35;;
54835;SDS011;43486;43.574;1.476;2023-06-22T07:03:36;10.95;;;5.00;;
54835;SDS011;43486;43.574;1.476;2023-06-22T07:06:02;10.20;;;5.28;;
54835;SDS011;43486;43.574;1.476;2023-06-22T07:08:27;12.52;;;5.72;;
54835;SDS011;43486;43.574;1.476;2023-06-22T07:10:52;11.63;;;5.50;;
54835;SDS011;43486;43.574;1.476;2023-06-22T07:13:18;10.30;;;5.00;;
54835;SDS011;43486;43.574;1.476;2023-06-22T07:15:43;13.25;;;5.15;;
54835;SDS011;43486;43.574;1.476;2023-06-22T07:18:08;9.32;;;5.43;;
54835;SDS011;43486;43.574;1.476;2023-06-22T07:20:34;10.57;;;3.95;;
54835;SDS011;43486;43.574;1.476;2023-06-22T07:22:59;12.18;;;4.10;;
54835;SDS011;43486;43.574;1.476;2023-06-22T07:25:25;8.85;;;4.20;;
54835;SDS011;43486;43.574;1.476;2023-06-22T07:30:23;12.35;;;5.32;;
54835;SDS011;43486;43.574;1.476;2023-06-22T07:32:48;8.43;;;4.35;;
54835;SDS011;43486;43.574;1.476;2023-06-22T07:35:14;6.55;;;4.15;;
54835;SDS011;43486;43.574;1.476;2023-06-22T07:37:41;9.77;;;4.68;;
54835;SDS011;43486;43.574;1.476;2023-06-22T07:40:06;10.13;;;4.25;;
54835;SDS011;43486;43.574;1.476;2023-06-22T07:42:33;8.13;;;4.13;;
54835;SDS011;43486;43.574;1.476;2023-06-22T07:44:58;5.85;;;3.78;;
54835;SDS011;43486;43.574;1.476;2023-06-22T07:47:23;7.30;;;4.30;;
54835;SDS011;43486;43.574;1.476;2023-06-22T07:49:51;8.35;;;3.40;;
54835;SDS011;43486;43.574;1.476;2023-06-22T07:52:17;8.68;;;4.47;;
54835;SDS011;43486;43.574;1.476;2023-06-22T07:54:42;6.47;;;3.40;;
54835;SDS011;43486;43.574;1.476;2023-06-22T07:57:08;8.68;;;4.38;;
54835;SDS011;43486;43.574;1.476;2023-06-22T07:59:33;7.15;;;4.03;;
54835;SDS011;43486;43.574;1.476;2023-06-22T08:01:58;7.30;;;3.70;;
54835;SDS011;43486;43.574;1.476;2023-06-22T08:04:24;7.00;;;3.40;;
54835;SDS011;43486;43.574;1.476;2023-06-22T08:06:49;13.00;;;4.53;;
54835;SDS011;43486;43.574;1.476;2023-06-22T08:09:14;6.82;;;3.45;;
54835;SDS011;43486;43.574;1.476;2023-06-22T08:11:40;6.55;;;3.20;;
54835;SDS011;43486;43.574;1.476;2023-06-22T08:14:05;6.07;;;3.30;;
54835;SDS011;43486;43.574;1.476;2023-06-22T08:16:31;6.00;;;3.60;;
54835;SDS011;43486;43.574;1.476;2023-06-22T08:18:56;6.60;;;4.03;;
54835;SDS011;43486;43.574;1.476;2023-06-22T08:21:22;9.32;;;4.53;;
54835;SDS011;43486;43.574;1.476;2023-06-22T08:23:47;7.95;;;3.53;;
54835;SDS011;43486;43.574;1.476;2023-06-22T08:26:14;6.22;;;3.10;;
54835;SDS011;43486;43.574;1.476;2023-06-22T08:28:39;7.13;;;2.90;;
54835;SDS011;43486;43.574;1.476;2023-06-22T08:31:04;8.25;;;4.43;;
54835;SDS011;43486;43.574;1.476;2023-06-22T08:33:30;7.30;;;3.10;;
54835;SDS011;43486;43.574;1.476;2023-06-22T08:35:56;6.43;;;3.63;;
54835;SDS011;43486;43.574;1.476;2023-06-22T08:38:22;5.63;;;3.25;;
54835;SDS011;43486;43.574;1.476;2023-06-22T08:40:48;5.88;;;3.58;;
54835;SDS011;43486;43.574;1.476;2023-06-22T08:43:13;6.82;;;3.95;;
54835;SDS011;43486;43.574;1.476;2023-06-22T08:45:39;5.53;;;3.10;;
54835;SDS011;43486;43.574;1.476;2023-06-22T08:48:04;6.82;;;3.63;;
54835;SDS011;43486;43.574;1.476;2023-06-22T08:50:30;6.60;;;3.38;;
54835;SDS011;43486;43.574;1.476;2023-06-22T08:52:55;8.68;;;4.20;;
54835;SDS011;43486;43.574;1.476;2023-06-22T08:55:21;7.68;;;4.90;;
54835;SDS011;43486;43.574;1.476;2023-06-22T08:57:46;7.68;;;3.83;;
54835;SDS011;43486;43.574;1.476;2023-06-22T09:00:11;6.95;;;3.30;;
54835;SDS011;43486;43.574;1.476;2023-06-22T09:02:42;7.43;;;4.00;;
54835;SDS011;43486;43.574;1.476;2023-06-22T09:05:13;7.13;;;3.65;;
54835;SDS011;43486;43.574;1.476;2023-06-22T09:07:39;7.93;;;4.03;;
54835;SDS011;43486;43.574;1.476;2023-06-22T09:10:05;7.03;;;3.58;;
54835;SDS011;43486;43.574;1.476;2023-06-22T09:12:31;5.15;;;2.88;;
54835;SDS011;43486;43.574;1.476;2023-06-22T09:14:57;5.20;;;3.13;;
54835;SDS011;43486;43.574;1.476;2023-06-22T09:17:25;6.18;;;4.18;;
54835;SDS011;43486;43.574;1.476;2023-06-22T09:19:50;6.28;;;3.60;;
54835;SDS011;43486;43.574;1.476;2023-06-22T09:22:16;5.97;;;3.33;;
54835;SDS011;43486;43.574;1.476;2023-06-22T09:24:41;7.05;;;3.42;;
54835;SDS011;43486;43.574;1.476;2023-06-22T09:27:07;6.13;;;3.13;;
54835;SDS011;43486;43.574;1.476;2023-06-22T09:29:32;6.35;;;3.53;;
54835;SDS011;43486;43.574;1.476;2023-06-22T09:31:59;7.65;;;3.22;;
54835;SDS011;43486;43.574;1.476;2023-06-22T09:34:24;7.72;;;3.80;;
54835;SDS011;43486;43.574;1.476;2023-06-22T09:36:50;8.35;;;3.45;;
54835;SDS011;43486;43.574;1.476;2023-06-22T09:39:15;6.68;;;3.90;;
54835;SDS011;43486;43.574;1.476;2023-06-22T09:41:42;9.18;;;4.00;;
54835;SDS011;43486;43.574;1.476;2023-06-22T09:44:07;9.00;;;3.90;;
54835;SDS011;43486;43.574;1.476;2023-06-22T09:46:33;6.05;;;2.97;;
54835;SDS011;43486;43.574;1.476;2023-06-22T09:48:58;8.07;;;3.75;;
54835;SDS011;43486;43.574;1.476;2023-06-22T09:51:24;6.38;;;3.17;;
54835;SDS011;43486;43.574;1.476;2023-06-22T09:53:49;5.63;;;2.55;;
54835;SDS011;43486;43.574;1.476;2023-06-22T09:56:15;7.22;;;3.47;;
54835;SDS011;43486;43.574;1.476;2023-06-22T09:58:44;5.88;;;3.00;;
54835;SDS011;43486;43.574;1.476;2023-06-22T10:01:10;6.68;;;3.63;;
54835;SDS011;43486;43.574;1.476;2023-06-22T10:03:35;6.60;;;3.50;;
54835;SDS011;43486;43.574;1.476;2023-06-22T10:06:02;8.10;;;3.38;;
54835;SDS011;43486;43.574;1.476;2023-06-22T10:08:27;8.55;;;3.42;;
54835;SDS011;43486;43.574;1.476;2023-06-22T10:10:52;5.53;;;2.42;;
54835;SDS011;43486;43.574;1.476;2023-06-22T10:13:18;6.40;;;3.03;;
54835;SDS011;43486;43.574;1.476;2023-06-22T10:15:44;5.25;;;2.58;;
54835;SDS011;43486;43.574;1.476;2023-06-22T10:18:14;7.00;;;3.10;;
54835;SDS011;43486;43.574;1.476;2023-06-22T10:20:41;5.70;;;2.42;;
54835;SDS011;43486;43.574;1.476;2023-06-22T10:23:06;7.95;;;2.53;;
54835;SDS011;43486;43.574;1.476;2023-06-22T10:25:31;5.88;;;2.92;;
54835;SDS011;43486;43.574;1.476;2023-06-22T10:27:57;5.88;;;2.47;;
54835;SDS011;43486;43.574;1.476;2023-06-22T10:30:22;3.95;;;2.15;;
54835;SDS011;43486;43.574;1.476;2023-06-22T10:32:48;7.38;;;3.65;;
54835;SDS011;43486;43.574;1.476;2023-06-22T10:35:14;7.35;;;3.30;;
54835;SDS011;43486;43.574;1.476;2023-06-22T10:37:41;9.18;;;3.05;;
54835;SDS011;43486;43.574;1.476;2023-06-22T10:40:11;5.80;;;2.70;;
54835;SDS011;43486;43.574;1.476;2023-06-22T10:42:37;6.38;;;2.83;;
54835;SDS011;43486;43.574;1.476;2023-06-22T10:45:03;7.88;;;2.95;;
54835;SDS011;43486;43.574;1.476;2023-06-22T10:47:28;7.10;;;3.63;;
54835;SDS011;43486;43.574;1.476;2023-06-22T10:49:54;6.47;;;2.95;;
54835;SDS011;43486;43.574;1.476;2023-06-22T10:52:19;7.35;;;2.85;;
54835;SDS011;43486;43.574;1.476;2023-06-22T10:54:44;5.63;;;3.10;;
54835;SDS011;43486;43.574;1.476;2023-06-22T10:57:10;6.05;;;3.67;;
54835;SDS011;43486;43.574;1.476;2023-06-22T10:59:35;6.05;;;2.83;;
54835;SDS011;43486;43.574;1.476;2023-06-22T11:02:01;6.95;;;3.28;;
54835;SDS011;43486;43.574;1.476;2023-06-22T11:04:27;7.20;;;3.22;;
54835;SDS011;43486;43.574;1.476;2023-06-22T11:06:52;8.82;;;2.83;;
54835;SDS011;43486;43.574;1.476;2023-06-22T11:09:18;4.85;;;2.45;;
54835;SDS011;43486;43.574;1.476;2023-06-22T11:11:46;5.25;;;3.05;;
54835;SDS011;43486;43.574;1.476;2023-06-22T11:14:12;12.50;;;3.28;;
54835;SDS011;43486;43.574;1.476;2023-06-22T11:16:37;7.32;;;3.05;;
54835;SDS011;43486;43.574;1.476;2023-06-22T11:19:04;8.02;;;3.00;;
54835;SDS011;43486;43.574;1.476;2023-06-22T11:21:29;4.72;;;2.60;;
54835;SDS011;43486;43.574;1.476;2023-06-22T11:23:55;5.07;;;2.80;;
54835;SDS011;43486;43.574;1.476;2023-06-22T11:26:20;7.85;;;3.40;;
54835;SDS011;43486;43.574;1.476;2023-06-22T11:28:46;8.00;;;3.08;;
54835;SDS011;43486;43.574;1.476;2023-06-22T11:31:11;4.30;;;3.00;;
54835;SDS011;43486;43.574;1.476;2023-06-22T11:33:37;6.38;;;3.25;;
54835;SDS011;43486;43.574;1.476;2023-06-22T11:36:02;6.22;;;2.65;;
54835;SDS011;43486;43.574;1.476;2023-06-22T11:38:28;7.20;;;2.70;;
54835;SDS011;43486;43.574;1.476;2023-06-22T11:40:53;4.97;;;2.38;;
54835;SDS011;43486;43.574;1.476;2023-06-22T11:43:19;6.18;;;3.30;;
54835;SDS011;43486;43.574;1.476;2023-06-22T11:45:44;6.47;;;3.28;;
54835;SDS011;43486;43.574;1.476;2023-06-22T11:48:10;5.63;;;2.85;;
54835;SDS011;43486;43.574;1.476;2023-06-22T11:50:35;5.95;;;3.05;;
54835;SDS011;43486;43.574;1.476;2023-06-22T11:53:03;7.43;;;2.95;;
54835;SDS011;43486;43.574;1.476;2023-06-22T11:55:29;8.32;;;3.22;;
54835;SDS011;43486;43.574;1.476;2023-06-22T11:57:55;13.93;;;2.90;;
54835;SDS011;43486;43.574;1.476;2023-06-22T12:00:23;5.72;;;2.83;;
54835;SDS011;43486;43.574;1.476;2023-06-22T12:02:50;8.10;;;3.20;;
54835;SDS011;43486;43.574;1.476;2023-06-22T12:05:17;7.05;;;2.92;;
54835;SDS011;43486;43.574;1.476;2023-06-22T12:07:44;6.38;;;2.97;;
54835;SDS011;43486;43.574;1.476;2023-06-22T12:10:09;7.68;;;3.05;;
54835;SDS011;43486;43.574;1.476;2023-06-22T12:12:35;5.32;;;2.65;;
54835;SDS011;43486;43.574;1.476;2023-06-22T12:15:00;5.85;;;3.00;;
54835;SDS011;43486;43.574;1.476;2023-06-22T12:17:28;11.70;;;3.55;;
54835;SDS011;43486;43.574;1.476;2023-06-22T12:19:54;7.60;;;2.85;;
54835;SDS011;43486;43.574;1.476;2023-06-22T12:22:19;6.85;;;3.38;;
54835;SDS011;43486;43.574;1.476;2023-06-22T12:24:45;8.65;;;2.78;;
54835;SDS011;43486;43.574;1.476;2023-06-22T12:27:10;5.57;;;2.78;;
54835;SDS011;43486;43.574;1.476;2023-06-22T12:29:35;6.28;;;3.10;;
54835;SDS011;43486;43.574;1.476;2023-06-22T12:32:01;5.07;;;2.38;;
54835;SDS011;43486;43.574;1.476;2023-06-22T12:34:26;4.72;;;2.63;;
54835;SDS011;43486;43.574;1.476;2023-06-22T12:36:51;5.05;;;2.58;;
54835;SDS011;43486;43.574;1.476;2023-06-22T12:39:19;7.07;;;3.75;;
54835;SDS011;43486;43.574;1.476;2023-06-22T12:41:44;4.65;;;2.63;;
54835;SDS011;43486;43.574;1.476;2023-06-22T12:44:10;6.60;;;3.10;;
54835;SDS011;43486;43.574;1.476;2023-06-22T12:46:35;5.90;;;3.05;;
54835;SDS011;43486;43.574;1.476;2023-06-22T12:49:03;5.57;;;2.63;;
54835;SDS011;43486;43.574;1.476;2023-06-22T12:51:29;6.97;;;2.97;;
54835;SDS011;43486;43.574;1.476;2023-06-22T12:53:55;7.00;;;3.22;;
54835;SDS011;43486;43.574;1.476;2023-06-22T12:56:20;5.97;;;2.30;;
54835;SDS011;43486;43.574;1.476;2023-06-22T12:58:46;4.82;;;2.70;;
54835;SDS011;43486;43.574;1.476;2023-06-22T13:01:11;5.22;;;3.03;;
54835;SDS011;43486;43.574;1.476;2023-06-22T13:03:37;7.07;;;2.97;;
54835;SDS011;43486;43.574;1.476;2023-06-22T13:06:02;6.93;;;3.40;;
54835;SDS011;43486;43.574;1.476;2023-06-22T13:08:28;6.03;;;3.13;;
54835;SDS011;43486;43.574;1.476;2023-06-22T13:10:54;6.60;;;3.15;;
54835;SDS011;43486;43.574;1.476;2023-06-22T13:13:21;5.22;;;2.67;;
54835;SDS011;43486;43.574;1.476;2023-06-22T13:15:49;5.60;;;2.22;;
54835;SDS011;43486;43.574;1.476;2023-06-22T13:18:15;4.18;;;2.42;;
54835;SDS011;43486;43.574;1.476;2023-06-22T13:20:40;4.68;;;2.55;;
54835;SDS011;43486;43.574;1.476;2023-06-22T13:23:06;4.35;;;2.70;;
54835;SDS011;43486;43.574;1.476;2023-06-22T13:25:31;7.13;;;3.03;;
54835;SDS011;43486;43.574;1.476;2023-06-22T13:27:57;4.65;;;2.30;;
54835;SDS011;43486;43.574;1.476;2023-06-22T13:30:22;6.75;;;2.42;;
54835;SDS011;43486;43.574;1.476;2023-06-22T13:32:48;6.80;;;3.05;;
54835;SDS011;43486;43.574;1.476;2023-06-22T13:35:13;5.20;;;2.65;;
54835;SDS011;43486;43.574;1.476;2023-06-22T13:37:38;8.77;;;2.22;;
54835;SDS011;43486;43.574;1.476;2023-06-22T13:40:05;6.88;;;3.55;;
54835;SDS011;43486;43.574;1.476;2023-06-22T13:42:31;6.97;;;3.35;;
54835;SDS011;43486;43.574;1.476;2023-06-22T13:44:57;5.30;;;2.58;;
54835;SDS011;43486;43.574;1.476;2023-06-22T13:47:23;6.78;;;2.85;;
54835;SDS011;43486;43.574;1.476;2023-06-22T13:49:48;4.68;;;2.35;;
54835;SDS011;43486;43.574;1.476;2023-06-22T13:52:14;5.18;;;2.70;;
54835;SDS011;43486;43.574;1.476;2023-06-22T13:54:39;7.25;;;2.55;;
54835;SDS011;43486;43.574;1.476;2023-06-22T13:57:05;8.63;;;3.45;;
54835;SDS011;43486;43.574;1.476;2023-06-22T13:59:30;7.28;;;3.63;;
54835;SDS011;43486;43.574;1.476;2023-06-22T14:01:56;5.65;;;2.63;;
54835;SDS011;43486;43.574;1.476;2023-06-22T14:04:22;8.25;;;2.75;;
54835;SDS011;43486;43.574;1.476;2023-06-22T14:06:48;5.95;;;2.72;;
54835;SDS011;43486;43.574;1.476;2023-06-22T14:09:13;5.72;;;2.70;;
54835;SDS011;43486;43.574;1.476;2023-06-22T14:11:40;5.82;;;2.90;;
54835;SDS011;43486;43.574;1.476;2023-06-22T14:14:05;6.30;;;2.70;;
54835;SDS011;43486;43.574;1.476;2023-06-22T14:16:31;7.55;;;2.50;;
54835;SDS011;43486;43.574;1.476;2023-06-22T14:18:56;5.60;;;2.63;;
54835;SDS011;43486;43.574;1.476;2023-06-22T14:21:22;5.25;;;2.60;;
54835;SDS011;43486;43.574;1.476;2023-06-22T14:23:47;7.55;;;2.72;;
54835;SDS011;43486;43.574;1.476;2023-06-22T14:26:15;4.72;;;2.25;;
54835;SDS011;43486;43.574;1.476;2023-06-22T14:28:43;6.00;;;2.25;;
54835;SDS011;43486;43.574;1.476;2023-06-22T14:31:12;4.50;;;2.45;;
54835;SDS011;43486;43.574;1.476;2023-06-22T14:33:39;6.63;;;3.10;;
54835;SDS011;43486;43.574;1.476;2023-06-22T14:36:04;5.68;;;3.20;;
54835;SDS011;43486;43.574;1.476;2023-06-22T14:38:30;6.35;;;2.88;;
54835;SDS011;43486;43.574;1.476;2023-06-22T14:40:55;7.10;;;2.90;;
54835;SDS011;43486;43.574;1.476;2023-06-22T14:43:20;6.30;;;2.47;;
54835;SDS011;43486;43.574;1.476;2023-06-22T14:45:46;5.30;;;2.85;;